sensor_id;sensor_type;location;lat;lon;timestamp;pressure;altitude;pressure_sealevel;temperature;humidity
11049;BME280;5577;42.706;23.160;2022-09-13T00:00:29;94009.03;;;14.05;100.00
11049;BME280;5577;42.706;23.160;2022-09-13T00:03:13;94010.59;;;14.09;100.00
11049;BME280;5577;42.706;23.160;2022-09-13T00:05:57;93980.38;;;13.88;100.00
11049;BME280;5577;42.706;23.160;2022-09-13T00:08:42;94005.28;;;14.13;100.00
11049;BME280;5577;42.706;23.160;2022-09-13T00:11:28;94011.31;;;14.06;100.00
11049;BME280;5577;42.706;23.160;2022-09-13T00:14:12;94007.09;;;14.02;100.00
11049;BME280;5577;42.706;23.160;2022-09-13T00:16:56;94002.94;;;14.04;100.00
11049;BME280;5577;42.706;23.160;2022-09-13T00:19:40;93997.25;;;14.06;100.00
11049;BME280;5577;42.706;23.160;2022-09-13T00:22:25;93993.06;;;14.08;100.00
11049;BME280;5577;42.706;23.160;2022-09-13T00:25:09;93981.25;;;14.06;100.00
11049;BME280;5577;42.706;23.160;2022-09-13T00:27:54;93988.16;;;14.10;100.00
11049;BME280;5577;42.706;23.160;2022-09-13T00:30:38;93996.53;;;14.12;100.00
11049;BME280;5577;42.706;23.160;2022-09-13T00:33:22;93986.31;;;14.18;100.00
11049;BME280;5577;42.706;23.160;2022-09-13T00:36:08;93983.31;;;14.23;100.00
11049;BME280;5577;42.706;23.160;2022-09-13T00:38:52;93979.84;;;14.19;100.00
11049;BME280;5577;42.706;23.160;2022-09-13T00:41:36;93949.28;;;13.95;100.00
11049;BME280;5577;42.706;23.160;2022-09-13T00:44:59;93982.94;;;14.24;100.00
11049;BME280;5577;42.706;23.160;2022-09-13T00:48:00;93982.53;;;14.22;100.00
11049;BME280;5577;42.706;23.160;2022-09-13T00:50:51;93940.56;;;14.02;100.00
11049;BME280;5577;42.706;23.160;2022-09-13T00:53:40;93974.63;;;14.33;100.00
11049;BME280;5577;42.706;23.160;2022-09-13T00:56:47;93979.91;;;14.29;100.00
11049;BME280;5577;42.706;23.160;2022-09-13T01:00:12;93982.22;;;14.31;100.00
11049;BME280;5577;42.706;23.160;2022-09-13T01:03:01;93975.41;;;14.33;100.00
11049;BME280;5577;42.706;23.160;2022-09-13T01:05:51;93967.78;;;14.35;100.00
11049;BME280;5577;42.706;23.160;2022-09-13T01:08:39;93968.53;;;14.32;100.00
11049;BME280;5577;42.706;23.160;2022-09-13T01:14:33;93932.28;;;14.17;100.00
11049;BME280;5577;42.706;23.160;2022-09-13T01:17:17;93965.16;;;14.43;100.00
11049;BME280;5577;42.706;23.160;2022-09-13T01:20:03;93958.28;;;14.38;100.00
11049;BME280;5577;42.706;23.160;2022-09-13T01:52:55;93951.09;;;14.46;100.00
11049;BME280;5577;42.706;23.160;2022-09-13T01:58:47;93951.06;;;14.38;100.00
11049;BME280;5577;42.706;23.160;2022-09-13T02:01:46;93951.03;;;14.35;100.00
11049;BME280;5577;42.706;23.160;2022-09-13T02:04:38;93920.50;;;14.18;100.00
11049;BME280;5577;42.706;23.160;2022-09-13T02:07:35;93944.97;;;14.34;100.00
11049;BME280;5577;42.706;23.160;2022-09-13T02:10:25;93952.19;;;14.30;100.00
11049;BME280;5577;42.706;23.160;2022-09-13T02:13:20;93946.75;;;14.16;100.00
11049;BME280;5577;42.706;23.160;2022-09-13T02:16:10;93949.78;;;14.18;100.00
11049;BME280;5577;42.706;23.160;2022-09-13T02:19:09;93954.34;;;14.18;100.00
11049;BME280;5577;42.706;23.160;2022-09-13T02:21:58;93947.06;;;14.11;100.00
11049;BME280;5577;42.706;23.160;2022-09-13T02:24:46;93949.38;;;14.09;100.00
11049;BME280;5577;42.706;23.160;2022-09-13T02:27:33;93948.91;;;14.00;100.00
11049;BME280;5577;42.706;23.160;2022-09-13T02:30:19;93951.63;;;14.04;100.00
11049;BME280;5577;42.706;23.160;2022-09-13T02:33:12;93945.84;;;13.95;100.00
11049;BME280;5577;42.706;23.160;2022-09-13T02:36:08;93947.03;;;14.01;100.00
11049;BME280;5577;42.706;23.160;2022-09-13T02:38:59;93959.19;;;14.02;100.00
11049;BME280;5577;42.706;23.160;2022-09-13T02:44:55;93898.50;;;13.60;100.00
11049;BME280;5577;42.706;23.160;2022-09-13T02:47:57;93951.91;;;13.92;100.00
11049;BME280;5577;42.706;23.160;2022-09-13T02:51:04;93954.56;;;13.92;100.00
11049;BME280;5577;42.706;23.160;2022-09-13T02:59:48;93956.75;;;13.76;100.00
11049;BME280;5577;42.706;23.160;2022-09-13T03:02:32;93948.00;;;13.75;100.00
11049;BME280;5577;42.706;23.160;2022-09-13T03:05:17;93970.47;;;13.81;100.00
11049;BME280;5577;42.706;23.160;2022-09-13T03:08:01;93949.59;;;13.87;100.00
11049;BME280;5577;42.706;23.160;2022-09-13T03:11:10;93952.25;;;13.87;100.00
11049;BME280;5577;42.706;23.160;2022-09-13T03:17:40;93950.28;;;13.77;100.00
11049;BME280;5577;42.706;23.160;2022-09-13T03:24:11;93942.31;;;13.80;100.00
11049;BME280;5577;42.706;23.160;2022-09-13T03:27:19;93929.31;;;13.65;100.00
11049;BME280;5577;42.706;23.160;2022-09-13T03:30:10;93952.91;;;13.73;100.00
11049;BME280;5577;42.706;23.160;2022-09-13T03:33:25;93954.03;;;13.72;100.00
11049;BME280;5577;42.706;23.160;2022-09-13T03:36:20;93945.25;;;13.65;100.00
11049;BME280;5577;42.706;23.160;2022-09-13T03:39:42;93943.66;;;13.57;100.00
11049;BME280;5577;42.706;23.160;2022-09-13T03:42:47;93955.03;;;13.54;100.00
11049;BME280;5577;42.706;23.160;2022-09-13T03:45:38;93953.13;;;13.51;100.00
11049;BME280;5577;42.706;23.160;2022-09-13T03:48:24;93943.91;;;13.38;100.00
11049;BME280;5577;42.706;23.160;2022-09-13T03:51:09;93957.22;;;13.41;100.00
11049;BME280;5577;42.706;23.160;2022-09-13T03:53:58;93870.00;;;12.74;100.00
11049;BME280;5577;42.706;23.160;2022-09-13T03:57:04;93965.09;;;13.31;100.00
11049;BME280;5577;42.706;23.160;2022-09-13T03:59:54;93954.84;;;13.29;100.00
11049;BME280;5577;42.706;23.160;2022-09-13T04:02:39;93954.41;;;13.24;100.00
11049;BME280;5577;42.706;23.160;2022-09-13T04:05:23;93953.63;;;13.23;100.00
11049;BME280;5577;42.706;23.160;2022-09-13T04:08:07;93967.25;;;13.18;100.00
11049;BME280;5577;42.706;23.160;2022-09-13T04:10:51;93960.00;;;13.15;100.00
11049;BME280;5577;42.706;23.160;2022-09-13T04:13:36;93959.25;;;13.15;100.00
11049;BME280;5577;42.706;23.160;2022-09-13T04:16:21;93959.94;;;13.08;100.00
11049;BME280;5577;42.706;23.160;2022-09-13T04:19:04;93962.25;;;13.10;100.00
11049;BME280;5577;42.706;23.160;2022-09-13T04:21:51;93965.25;;;13.08;100.00
11049;BME280;5577;42.706;23.160;2022-09-13T04:24:35;93962.97;;;13.07;100.00
11049;BME280;5577;42.706;23.160;2022-09-13T04:27:20;93968.31;;;13.10;100.00
11049;BME280;5577;42.706;23.160;2022-09-13T04:30:04;93961.88;;;13.11;100.00
11049;BME280;5577;42.706;23.160;2022-09-13T04:32:49;93966.09;;;13.16;100.00
11049;BME280;5577;42.706;23.160;2022-09-13T04:35:33;93969.84;;;13.11;100.00
11049;BME280;5577;42.706;23.160;2022-09-13T04:38:17;93983.56;;;13.17;100.00
11049;BME280;5577;42.706;23.160;2022-09-13T04:41:01;93976.03;;;13.22;100.00
11049;BME280;5577;42.706;23.160;2022-09-13T04:43:50;93971.50;;;13.23;100.00
11049;BME280;5577;42.706;23.160;2022-09-13T04:46:35;93979.59;;;13.37;100.00
11049;BME280;5577;42.706;23.160;2022-09-13T04:49:19;93986.16;;;13.50;100.00
11049;BME280;5577;42.706;23.160;2022-09-13T04:52:03;93985.16;;;13.65;100.00
11049;BME280;5577;42.706;23.160;2022-09-13T04:54:47;93977.97;;;13.69;100.00
11049;BME280;5577;42.706;23.160;2022-09-13T04:57:31;93983.09;;;13.91;100.00
11049;BME280;5577;42.706;23.160;2022-09-13T05:00:15;93988.91;;;14.11;100.00
11049;BME280;5577;42.706;23.160;2022-09-13T05:02:59;93986.75;;;14.23;100.00
11049;BME280;5577;42.706;23.160;2022-09-13T05:05:42;93942.84;;;14.00;100.00
11049;BME280;5577;42.706;23.160;2022-09-13T05:08:26;93984.50;;;14.32;100.00
11049;BME280;5577;42.706;23.160;2022-09-13T05:11:10;93996.25;;;14.28;100.00
11049;BME280;5577;42.706;23.160;2022-09-13T05:13:56;94005.75;;;14.25;100.00
11049;BME280;5577;42.706;23.160;2022-09-13T05:16:41;93982.13;;;14.20;100.00
11049;BME280;5577;42.706;23.160;2022-09-13T05:19:25;93989.03;;;14.28;100.00
11049;BME280;5577;42.706;23.160;2022-09-13T05:22:09;93991.72;;;14.25;100.00
11049;BME280;5577;42.706;23.160;2022-09-13T05:24:53;94000.81;;;14.24;100.00
11049;BME280;5577;42.706;23.160;2022-09-13T05:27:37;93995.72;;;14.08;100.00
11049;BME280;5577;42.706;23.160;2022-09-13T05:30:21;93999.47;;;14.00;100.00
11049;BME280;5577;42.706;23.160;2022-09-13T05:33:05;93999.94;;;14.09;100.00
11049;BME280;5577;42.706;23.160;2022-09-13T05:35:49;94000.34;;;14.15;100.00
11049;BME280;5577;42.706;23.160;2022-09-13T05:38:34;93993.19;;;14.22;100.00
11049;BME280;5577;42.706;23.160;2022-09-13T05:41:18;93997.44;;;14.30;100.00
11049;BME280;5577;42.706;23.160;2022-09-13T05:44:02;93982.28;;;14.42;100.00
11049;BME280;5577;42.706;23.160;2022-09-13T05:46:47;93998.66;;;14.47;100.00
11049;BME280;5577;42.706;23.160;2022-09-13T05:49:32;94005.16;;;14.50;100.00
11049;BME280;5577;42.706;23.160;2022-09-13T05:52:15;93998.75;;;14.61;100.00
11049;BME280;5577;42.706;23.160;2022-09-13T05:54:59;93993.81;;;14.70;100.00
11049;BME280;5577;42.706;23.160;2022-09-13T05:57:43;93995.38;;;14.71;100.00
11049;BME280;5577;42.706;23.160;2022-09-13T06:00:27;93976.72;;;14.71;100.00
11049;BME280;5577;42.706;23.160;2022-09-13T06:03:11;93993.94;;;15.02;100.00
11049;BME280;5577;42.706;23.160;2022-09-13T06:05:56;93977.22;;;15.12;100.00
11049;BME280;5577;42.706;23.160;2022-09-13T06:08:41;93998.66;;;15.43;100.00
11049;BME280;5577;42.706;23.160;2022-09-13T06:11:25;93989.13;;;15.53;100.00
11049;BME280;5577;42.706;23.160;2022-09-13T06:14:09;93991.44;;;15.75;100.00
11049;BME280;5577;42.706;23.160;2022-09-13T06:16:53;93995.66;;;15.83;100.00
11049;BME280;5577;42.706;23.160;2022-09-13T06:19:37;93996.78;;;15.96;100.00
11049;BME280;5577;42.706;23.160;2022-09-13T06:22:22;94002.13;;;16.07;100.00
11049;BME280;5577;42.706;23.160;2022-09-13T06:25:07;93994.88;;;16.14;100.00
11049;BME280;5577;42.706;23.160;2022-09-13T06:27:52;93994.09;;;16.28;100.00
11049;BME280;5577;42.706;23.160;2022-09-13T06:30:36;93999.06;;;16.43;100.00
11049;BME280;5577;42.706;23.160;2022-09-13T06:33:20;94008.19;;;16.53;100.00
11049;BME280;5577;42.706;23.160;2022-09-13T06:36:06;94002.47;;;16.54;100.00
11049;BME280;5577;42.706;23.160;2022-09-13T06:38:50;94008.22;;;16.49;100.00
11049;BME280;5577;42.706;23.160;2022-09-13T06:41:37;94013.16;;;16.51;100.00
11049;BME280;5577;42.706;23.160;2022-09-13T06:44:21;94016.97;;;16.50;100.00
11049;BME280;5577;42.706;23.160;2022-09-13T06:47:06;94012.03;;;16.52;100.00
11049;BME280;5577;42.706;23.160;2022-09-13T06:49:50;94010.06;;;16.66;100.00
11049;BME280;5577;42.706;23.160;2022-09-13T06:52:34;94018.81;;;16.81;100.00
11049;BME280;5577;42.706;23.160;2022-09-13T06:55:18;94016.84;;;16.99;100.00
11049;BME280;5577;42.706;23.160;2022-09-13T06:58:02;94022.53;;;17.04;100.00
11049;BME280;5577;42.706;23.160;2022-09-13T07:00:46;94015.69;;;16.93;100.00
11049;BME280;5577;42.706;23.160;2022-09-13T07:03:30;94022.19;;;17.02;100.00
11049;BME280;5577;42.706;23.160;2022-09-13T07:06:17;94026.75;;;17.02;100.00
11049;BME280;5577;42.706;23.160;2022-09-13T07:09:04;94017.19;;;17.04;100.00
11049;BME280;5577;42.706;23.160;2022-09-13T07:11:51;94025.94;;;17.12;100.00
11049;BME280;5577;42.706;23.160;2022-09-13T07:14:35;94026.63;;;17.30;100.00
11049;BME280;5577;42.706;23.160;2022-09-13T07:17:19;94028.13;;;17.42;100.00
11049;BME280;5577;42.706;23.160;2022-09-13T07:20:03;94024.28;;;17.46;100.00
11049;BME280;5577;42.706;23.160;2022-09-13T07:22:49;94031.56;;;17.42;100.00
11049;BME280;5577;42.706;23.160;2022-09-13T07:25:33;94021.63;;;17.46;100.00
11049;BME280;5577;42.706;23.160;2022-09-13T07:28:17;94033.75;;;17.61;100.00
11049;BME280;5577;42.706;23.160;2022-09-13T07:34:00;94035.13;;;17.87;100.00
11049;BME280;5577;42.706;23.160;2022-09-13T07:36:45;94022.53;;;17.80;100.00
11049;BME280;5577;42.706;23.160;2022-09-13T07:39:30;94033.81;;;18.05;100.00
11049;BME280;5577;42.706;23.160;2022-09-13T07:42:14;94032.63;;;18.13;100.00
11049;BME280;5577;42.706;23.160;2022-09-13T07:44:58;94048.91;;;18.36;100.00
11049;BME280;5577;42.706;23.160;2022-09-13T07:47:41;94045.66;;;18.59;100.00
11049;BME280;5577;42.706;23.160;2022-09-13T07:50:25;94048.84;;;18.84;100.00
11049;BME280;5577;42.706;23.160;2022-09-13T07:53:09;94043.66;;;18.66;100.00
11049;BME280;5577;42.706;23.160;2022-09-13T07:55:59;94044.53;;;18.56;100.00
11049;BME280;5577;42.706;23.160;2022-09-13T07:58:44;94050.53;;;18.67;100.00
11049;BME280;5577;42.706;23.160;2022-09-13T08:04:21;94051.13;;;18.48;100.00
11049;BME280;5577;42.706;23.160;2022-09-13T08:07:06;94045.91;;;18.71;100.00
11049;BME280;5577;42.706;23.160;2022-09-13T08:09:50;94049.84;;;18.97;100.00
11049;BME280;5577;42.706;23.160;2022-09-13T08:12:35;94041.81;;;19.30;100.00
11049;BME280;5577;42.706;23.160;2022-09-13T08:15:19;94047.88;;;19.38;95.07
11049;BME280;5577;42.706;23.160;2022-09-13T08:18:04;94044.91;;;19.59;93.32
11049;BME280;5577;42.706;23.160;2022-09-13T08:20:48;94046.31;;;19.40;91.56
11049;BME280;5577;42.706;23.160;2022-09-13T08:23:32;94041.44;;;19.28;90.08
11049;BME280;5577;42.706;23.160;2022-09-13T08:26:16;94041.69;;;19.07;92.58
11049;BME280;5577;42.706;23.160;2022-09-13T08:29:03;94043.34;;;19.31;94.76
11049;BME280;5577;42.706;23.160;2022-09-13T08:31:47;94040.78;;;19.51;87.11
11049;BME280;5577;42.706;23.160;2022-09-13T08:34:31;94047.91;;;19.91;85.23
11049;BME280;5577;42.706;23.160;2022-09-13T08:37:15;94032.72;;;20.04;76.60
11049;BME280;5577;42.706;23.160;2022-09-13T08:39:59;94029.38;;;20.46;76.74
11049;BME280;5577;42.706;23.160;2022-09-13T08:42:53;94032.78;;;20.27;70.79
11049;BME280;5577;42.706;23.160;2022-09-13T08:45:39;94040.38;;;19.83;75.83
11049;BME280;5577;42.706;23.160;2022-09-13T08:48:31;94043.22;;;19.42;77.15
11049;BME280;5577;42.706;23.160;2022-09-13T08:51:39;94025.25;;;19.92;74.47
11049;BME280;5577;42.706;23.160;2022-09-13T08:54:24;94003.22;;;20.27;66.04
11049;BME280;5577;42.706;23.160;2022-09-13T09:00:34;94034.34;;;20.48;65.36
11049;BME280;5577;42.706;23.160;2022-09-13T09:06:21;94031.22;;;21.15;68.59
11049;BME280;5577;42.706;23.160;2022-09-13T09:09:13;94027.00;;;21.53;61.13
11049;BME280;5577;42.706;23.160;2022-09-13T09:12:30;94034.81;;;21.28;63.47
11049;BME280;5577;42.706;23.160;2022-09-13T09:15:21;94038.88;;;21.36;62.83
11049;BME280;5577;42.706;23.160;2022-09-13T09:18:29;94024.06;;;21.83;60.42
11049;BME280;5577;42.706;23.160;2022-09-13T09:21:17;94028.22;;;22.35;55.88
11049;BME280;5577;42.706;23.160;2022-09-13T09:24:01;94031.91;;;22.74;57.10
11049;BME280;5577;42.706;23.160;2022-09-13T09:26:45;94028.66;;;22.66;53.23
11049;BME280;5577;42.706;23.160;2022-09-13T09:29:31;94023.59;;;22.04;55.26
11049;BME280;5577;42.706;23.160;2022-09-13T09:32:39;94028.44;;;21.57;56.61
11049;BME280;5577;42.706;23.160;2022-09-13T09:35:54;94015.34;;;21.01;58.04
11049;BME280;5577;42.706;23.160;2022-09-13T09:38:42;94018.78;;;20.82;60.85
11049;BME280;5577;42.706;23.160;2022-09-13T09:41:29;94012.28;;;20.79;59.10
11049;BME280;5577;42.706;23.160;2022-09-13T09:44:23;94007.19;;;20.42;61.26
11049;BME280;5577;42.706;23.160;2022-09-13T09:47:17;93995.34;;;21.21;62.42
11049;BME280;5577;42.706;23.160;2022-09-13T09:50:16;94006.13;;;21.57;56.02
11049;BME280;5577;42.706;23.160;2022-09-13T09:53:13;94003.69;;;22.30;54.68
11049;BME280;5577;42.706;23.160;2022-09-13T09:56:23;94004.28;;;21.89;54.05
11049;BME280;5577;42.706;23.160;2022-09-13T09:59:24;93996.97;;;21.35;56.09
11049;BME280;5577;42.706;23.160;2022-09-13T10:02:20;93995.59;;;22.30;55.93
11049;BME280;5577;42.706;23.160;2022-09-13T10:05:05;93984.44;;;23.17;53.95
11049;BME280;5577;42.706;23.160;2022-09-13T10:07:58;93979.84;;;22.89;52.36
11049;BME280;5577;42.706;23.160;2022-09-13T10:10:52;93997.69;;;23.28;49.16
11049;BME280;5577;42.706;23.160;2022-09-13T10:13:37;93983.41;;;23.93;46.56
11049;BME280;5577;42.706;23.160;2022-09-13T10:16:26;93974.84;;;23.82;47.21
11049;BME280;5577;42.706;23.160;2022-09-13T10:19:25;93982.19;;;23.16;47.36
11049;BME280;5577;42.706;23.160;2022-09-13T10:22:11;93980.56;;;22.77;49.05
11049;BME280;5577;42.706;23.160;2022-09-13T10:28:00;93969.22;;;23.89;48.28
11049;BME280;5577;42.706;23.160;2022-09-13T10:30:57;93966.78;;;24.75;47.14
11049;BME280;5577;42.706;23.160;2022-09-13T10:36:34;93963.56;;;23.59;46.26
11049;BME280;5577;42.706;23.160;2022-09-13T10:39:21;93945.09;;;23.82;46.62
11049;BME280;5577;42.706;23.160;2022-09-13T10:42:08;93974.69;;;23.07;46.27
11049;BME280;5577;42.706;23.160;2022-09-13T10:44:56;93972.19;;;23.29;45.88
11049;BME280;5577;42.706;23.160;2022-09-13T10:47:46;93955.13;;;22.46;45.45
11049;BME280;5577;42.706;23.160;2022-09-13T10:50:31;93958.06;;;24.12;44.37
11049;BME280;5577;42.706;23.160;2022-09-13T10:53:32;93951.44;;;25.16;42.01
11049;BME280;5577;42.706;23.160;2022-09-13T10:56:22;93955.66;;;26.93;36.43
11049;BME280;5577;42.706;23.160;2022-09-13T10:59:27;93938.47;;;28.06;36.07
11049;BME280;5577;42.706;23.160;2022-09-13T11:02:34;93952.03;;;26.96;36.71
11049;BME280;5577;42.706;23.160;2022-09-13T11:05:26;93928.75;;;25.83;39.97
11049;BME280;5577;42.706;23.160;2022-09-13T11:15:05;93950.06;;;23.46;44.84
11049;BME280;5577;42.706;23.160;2022-09-13T11:23:51;93947.28;;;26.24;37.84
11049;BME280;5577;42.706;23.160;2022-09-13T11:27:01;93942.50;;;26.55;38.72
11049;BME280;5577;42.706;23.160;2022-09-13T11:30:21;93939.53;;;26.89;37.01
11049;BME280;5577;42.706;23.160;2022-09-13T11:33:31;93925.38;;;26.10;37.09
11049;BME280;5577;42.706;23.160;2022-09-13T11:45:43;93927.56;;;25.93;38.84
11049;BME280;5577;42.706;23.160;2022-09-13T11:52:05;93924.22;;;25.19;40.06
11049;BME280;5577;42.706;23.160;2022-09-13T11:58:12;93926.38;;;24.81;39.58
11049;BME280;5577;42.706;23.160;2022-09-13T12:01:01;93919.50;;;25.63;39.52
11049;BME280;5577;42.706;23.160;2022-09-13T12:03:53;93925.09;;;25.68;39.16
11049;BME280;5577;42.706;23.160;2022-09-13T12:06:43;93919.38;;;24.71;41.04
11049;BME280;5577;42.706;23.160;2022-09-13T12:09:32;93918.38;;;24.99;40.20
11049;BME280;5577;42.706;23.160;2022-09-13T12:12:19;93920.31;;;25.20;41.14
11049;BME280;5577;42.706;23.160;2022-09-13T12:15:30;93914.47;;;24.78;41.43
11049;BME280;5577;42.706;23.160;2022-09-13T12:18:48;93919.47;;;23.99;43.43
11049;BME280;5577;42.706;23.160;2022-09-13T12:21:38;93920.50;;;23.14;43.55
11049;BME280;5577;42.706;23.160;2022-09-13T12:24:39;93920.91;;;23.00;44.21
11049;BME280;5577;42.706;23.160;2022-09-13T12:27:47;93919.34;;;22.29;45.06
11049;BME280;5577;42.706;23.160;2022-09-13T12:30:51;93920.63;;;22.09;48.21
11049;BME280;5577;42.706;23.160;2022-09-13T12:33:40;93923.06;;;22.03;47.66
11049;BME280;5577;42.706;23.160;2022-09-13T12:36:30;93929.13;;;22.07;45.45
11049;BME280;5577;42.706;23.160;2022-09-13T12:55:35;93918.69;;;25.01;41.02
11049;BME280;5577;42.706;23.160;2022-09-13T13:01:24;93919.72;;;24.26;41.68
11049;BME280;5577;42.706;23.160;2022-09-13T13:04:36;93915.56;;;23.38;43.29
11049;BME280;5577;42.706;23.160;2022-09-13T13:07:20;93923.97;;;22.74;45.46
11049;BME280;5577;42.706;23.160;2022-09-13T13:10:20;93922.41;;;22.15;46.89
11049;BME280;5577;42.706;23.160;2022-09-13T13:13:19;93887.81;;;22.26;47.04
11049;BME280;5577;42.706;23.160;2022-09-13T13:19:26;93924.78;;;23.28;46.60
11049;BME280;5577;42.706;23.160;2022-09-13T13:25:36;93919.75;;;22.73;48.57
11049;BME280;5577;42.706;23.160;2022-09-13T13:28:53;93916.13;;;23.33;47.34
11049;BME280;5577;42.706;23.160;2022-09-13T13:34:47;93920.44;;;22.61;48.14
11049;BME280;5577;42.706;23.160;2022-09-13T13:37:34;93919.16;;;22.94;49.17
11049;BME280;5577;42.706;23.160;2022-09-13T13:40:22;93904.19;;;23.05;47.87
11049;BME280;5577;42.706;23.160;2022-09-13T13:46:24;93930.03;;;22.49;50.01
11049;BME280;5577;42.706;23.160;2022-09-13T14:01:16;93934.59;;;23.22;47.40
11049;BME280;5577;42.706;23.160;2022-09-13T14:07:34;93929.75;;;23.42;46.40
11049;BME280;5577;42.706;23.160;2022-09-13T14:11:07;93935.47;;;23.56;46.09
11049;BME280;5577;42.706;23.160;2022-09-13T14:13:59;93941.09;;;23.62;45.12
11049;BME280;5577;42.706;23.160;2022-09-13T14:19:52;93939.59;;;23.07;45.20
11049;BME280;5577;42.706;23.160;2022-09-13T14:22:38;93948.47;;;22.79;46.66
11049;BME280;5577;42.706;23.160;2022-09-13T14:25:24;93943.81;;;22.67;46.06
11049;BME280;5577;42.706;23.160;2022-09-13T14:28:11;93946.03;;;22.40;47.42
11049;BME280;5577;42.706;23.160;2022-09-13T14:30:57;93954.47;;;22.42;47.55
11049;BME280;5577;42.706;23.160;2022-09-13T14:33:42;93939.44;;;22.41;46.15
11049;BME280;5577;42.706;23.160;2022-09-13T14:36:26;93946.44;;;22.38;46.33
11049;BME280;5577;42.706;23.160;2022-09-13T14:39:10;93943.69;;;22.42;46.72
11049;BME280;5577;42.706;23.160;2022-09-13T14:42:14;93945.25;;;22.39;48.09
11049;BME280;5577;42.706;23.160;2022-09-13T14:44:58;93943.09;;;22.34;46.50
11049;BME280;5577;42.706;23.160;2022-09-13T14:50:48;93934.44;;;22.11;47.69
11049;BME280;5577;42.706;23.160;2022-09-13T14:53:35;93935.13;;;22.15;47.75
11049;BME280;5577;42.706;23.160;2022-09-13T14:56:29;93936.72;;;22.12;46.94
11049;BME280;5577;42.706;23.160;2022-09-13T14:59:30;93935.47;;;22.01;47.80
11049;BME280;5577;42.706;23.160;2022-09-13T15:02:19;93944.81;;;21.96;45.80
11049;BME280;5577;42.706;23.160;2022-09-13T15:05:07;93953.75;;;21.77;45.69
11049;BME280;5577;42.706;23.160;2022-09-13T15:07:55;93949.53;;;21.76;46.97
11049;BME280;5577;42.706;23.160;2022-09-13T15:10:42;93946.53;;;21.71;48.25
11049;BME280;5577;42.706;23.160;2022-09-13T15:13:27;93948.91;;;21.69;47.75
11049;BME280;5577;42.706;23.160;2022-09-13T15:16:27;93940.69;;;21.76;48.70
11049;BME280;5577;42.706;23.160;2022-09-13T15:19:18;93938.78;;;21.57;48.77
11049;BME280;5577;42.706;23.160;2022-09-13T15:22:24;93941.88;;;21.39;46.71
11049;BME280;5577;42.706;23.160;2022-09-13T15:25:26;93904.00;;;20.95;47.66
11049;BME280;5577;42.706;23.160;2022-09-13T15:28:20;93946.22;;;20.98;48.43
11049;BME280;5577;42.706;23.160;2022-09-13T15:31:04;93937.91;;;20.89;49.59
11049;BME280;5577;42.706;23.160;2022-09-13T15:37:09;93942.41;;;20.76;50.79
11049;BME280;5577;42.706;23.160;2022-09-13T15:42:50;93944.50;;;20.45;52.05
11049;BME280;5577;42.706;23.160;2022-09-13T15:45:35;93946.28;;;20.32;51.02
11049;BME280;5577;42.706;23.160;2022-09-13T15:48:30;93949.03;;;20.29;52.19
11049;BME280;5577;42.706;23.160;2022-09-13T15:51:15;93952.97;;;20.24;55.47
11049;BME280;5577;42.706;23.160;2022-09-13T15:54:00;93961.03;;;20.24;58.19
11049;BME280;5577;42.706;23.160;2022-09-13T15:56:48;93962.91;;;20.27;55.84
11049;BME280;5577;42.706;23.160;2022-09-13T15:59:34;93967.56;;;20.23;57.58
11049;BME280;5577;42.706;23.160;2022-09-13T16:02:25;93961.16;;;20.17;56.36
11049;BME280;5577;42.706;23.160;2022-09-13T16:05:11;93969.56;;;20.19;56.21
11049;BME280;5577;42.706;23.160;2022-09-13T16:07:54;93975.06;;;20.12;57.86
11049;BME280;5577;42.706;23.160;2022-09-13T16:10:41;93963.63;;;20.05;57.14
11049;BME280;5577;42.706;23.160;2022-09-13T16:13:25;93971.75;;;20.01;57.66
11049;BME280;5577;42.706;23.160;2022-09-13T16:16:12;93975.31;;;19.95;57.94
11049;BME280;5577;42.706;23.160;2022-09-13T16:18:57;93974.19;;;19.92;59.47
11049;BME280;5577;42.706;23.160;2022-09-13T16:21:41;93976.41;;;19.74;58.65
11049;BME280;5577;42.706;23.160;2022-09-13T16:24:24;93983.34;;;19.71;59.70
11049;BME280;5577;42.706;23.160;2022-09-13T16:27:14;93956.81;;;19.50;62.44
11049;BME280;5577;42.706;23.160;2022-09-13T16:29:58;93978.63;;;19.52;63.50
11049;BME280;5577;42.706;23.160;2022-09-13T16:32:44;93981.28;;;19.26;69.99
11049;BME280;5577;42.706;23.160;2022-09-13T16:35:29;93980.69;;;19.11;68.53
11049;BME280;5577;42.706;23.160;2022-09-13T16:38:14;93944.06;;;18.68;71.08
11049;BME280;5577;42.706;23.160;2022-09-13T16:40:59;93974.28;;;18.72;71.81
11049;BME280;5577;42.706;23.160;2022-09-13T16:43:42;93988.50;;;18.65;69.93
11049;BME280;5577;42.706;23.160;2022-09-13T16:46:26;93991.78;;;18.46;71.58
11049;BME280;5577;42.706;23.160;2022-09-13T16:49:11;93982.63;;;18.44;77.73
11049;BME280;5577;42.706;23.160;2022-09-13T16:51:55;93990.66;;;18.44;78.09
11049;BME280;5577;42.706;23.160;2022-09-13T16:54:42;93997.28;;;18.29;75.77
11049;BME280;5577;42.706;23.160;2022-09-13T16:57:29;93997.69;;;18.24;78.15
11049;BME280;5577;42.706;23.160;2022-09-13T17:00:13;94000.75;;;18.26;78.58
11049;BME280;5577;42.706;23.160;2022-09-13T17:02:58;93968.13;;;17.94;80.58
11049;BME280;5577;42.706;23.160;2022-09-13T17:05:42;94010.38;;;18.16;83.82
11049;BME280;5577;42.706;23.160;2022-09-13T17:08:26;94005.50;;;18.08;83.18
11049;BME280;5577;42.706;23.160;2022-09-13T17:11:11;93980.41;;;17.84;82.19
11049;BME280;5577;42.706;23.160;2022-09-13T17:13:56;94014.34;;;18.01;84.26
11049;BME280;5577;42.706;23.160;2022-09-13T17:16:44;94016.63;;;18.03;89.53
11049;BME280;5577;42.706;23.160;2022-09-13T17:19:31;94020.16;;;17.93;87.55
11049;BME280;5577;42.706;23.160;2022-09-13T17:22:18;94028.53;;;17.98;88.27
11049;BME280;5577;42.706;23.160;2022-09-13T17:25:03;94022.03;;;17.99;90.34
11049;BME280;5577;42.706;23.160;2022-09-13T17:27:50;94029.72;;;17.90;85.91
11049;BME280;5577;42.706;23.160;2022-09-13T17:30:34;94035.09;;;17.90;85.61